createdAt,value
2022-10-18T00:02:20.203Z,101751.31
2022-10-18T00:04:47.321Z,101750.22
2022-10-18T00:07:14.410Z,101756.63
2022-10-18T00:09:41.004Z,101745.69
2022-10-18T00:12:07.874Z,101742.75
2022-10-18T00:14:34.502Z,101747.84
2022-10-18T00:17:01.224Z,101742.66
2022-10-18T00:19:29.305Z,101740.94
2022-10-18T00:21:56.338Z,101737.09
2022-10-18T00:24:22.928Z,101739.63
2022-10-18T00:26:49.562Z,101732.16
2022-10-18T00:29:16.541Z,101734.78
2022-10-18T00:31:44.043Z,101736.94
2022-10-18T00:34:13.611Z,101741.50
2022-10-18T00:36:41.150Z,101736.53
2022-10-18T00:39:09.382Z,101733.94
2022-10-18T00:41:37.938Z,101730.91
2022-10-18T00:44:24.426Z,101735.03
2022-10-18T00:46:52.624Z,101735.88
2022-10-18T00:49:23.214Z,101723.94
2022-10-18T00:51:56.728Z,101728.31
2022-10-18T00:54:24.563Z,101727.03
2022-10-18T00:56:51.290Z,101721.50
2022-10-18T00:59:20.255Z,101718.72
2022-10-18T01:01:47.286Z,101719.59
2022-10-18T01:04:15.555Z,101718.91
2022-10-18T01:09:52.654Z,101715.03
2022-10-18T01:12:36.827Z,101703.28
2022-10-18T01:15:21.663Z,101702.41
2022-10-18T01:18:00.657Z,101708.84
2022-10-18T01:21:04.520Z,101707.16
2022-10-18T01:23:45.839Z,101709.97
2022-10-18T01:26:27.795Z,101702.22
2022-10-18T01:29:13.673Z,101700.53
2022-10-18T01:31:45.226Z,101710.78
2022-10-18T01:34:15.836Z,101706.09
2022-10-18T01:36:46.952Z,101706.94
2022-10-18T01:39:23.454Z,101716.00
2022-10-18T01:41:52.607Z,101703.53
2022-10-18T01:44:23.334Z,101707.41
2022-10-18T01:46:53.328Z,101709.69
2022-10-18T01:49:20.036Z,101697.94
2022-10-18T01:51:47.006Z,101697.75
2022-10-18T01:54:21.892Z,101697.97
2022-10-18T01:57:18.281Z,101695.19
2022-10-18T02:00:14.876Z,101693.38
2022-10-18T02:02:47.343Z,101696.00
2022-10-18T02:05:26.686Z,101692.75
2022-10-18T02:08:23.780Z,101689.53
2022-10-18T02:10:55.690Z,101693.19
2022-10-18T02:13:25.007Z,101691.63
2022-10-18T02:15:57.535Z,101700.25
2022-10-18T02:18:32.891Z,101694.72
2022-10-18T02:21:03.370Z,101694.38
2022-10-18T02:23:31.702Z,101698.31
2022-10-18T02:25:58.528Z,101698.00
2022-10-18T02:28:26.418Z,101703.13
2022-10-18T02:31:06.341Z,101704.59
2022-10-18T02:33:56.526Z,101700.50
2022-10-18T02:36:34.243Z,101700.25
2022-10-18T02:39:05.863Z,101703.28
2022-10-18T02:41:32.837Z,101707.13
2022-10-18T02:43:59.533Z,101704.59
2022-10-18T02:48:58.379Z,101702.72
2022-10-18T02:51:25.183Z,101702.50
2022-10-18T02:53:51.870Z,101703.78
2022-10-18T02:56:18.768Z,101708.06
2022-10-18T02:58:45.373Z,101710.34
2022-10-18T03:01:11.968Z,101707.81
2022-10-18T03:03:38.582Z,101706.31
2022-10-18T03:06:05.394Z,101710.66
2022-10-18T03:08:31.965Z,101707.69
2022-10-18T03:10:58.770Z,101705.94
2022-10-18T03:13:25.466Z,101714.31
2022-10-18T03:15:52.043Z,101717.75
2022-10-18T03:18:18.660Z,101707.19
2022-10-18T03:20:45.847Z,101713.25
2022-10-18T03:23:12.757Z,101709.19
2022-10-18T03:25:41.601Z,101711.97
2022-10-18T03:28:11.056Z,101705.47
2022-10-18T03:30:38.866Z,101708.75
2022-10-18T03:33:06.614Z,101712.22
2022-10-18T03:35:33.248Z,101716.25
2022-10-18T03:37:59.983Z,101712.84
2022-10-18T03:40:26.793Z,101707.47
2022-10-18T03:42:53.556Z,101704.66
2022-10-18T03:45:20.153Z,101720.69
2022-10-18T03:47:46.864Z,101714.47
2022-10-18T03:50:13.830Z,101703.34
2022-10-18T03:52:40.875Z,101705.69
2022-10-18T03:55:07.775Z,101697.28
2022-10-18T03:57:34.354Z,101695.56
2022-10-18T04:00:00.879Z,101700.72
2022-10-18T04:02:27.839Z,101685.44
2022-10-18T04:04:54.353Z,101700.25
2022-10-18T04:07:20.948Z,101708.84
2022-10-18T04:09:47.486Z,101711.81
2022-10-18T04:12:14.356Z,101704.72
2022-10-18T04:14:40.933Z,101712.44
2022-10-18T04:17:08.351Z,101727.41
2022-10-18T04:19:34.926Z,101728.72
2022-10-18T04:22:01.574Z,101721.66
2022-10-18T04:24:28.406Z,101720.16
2022-10-18T04:26:54.983Z,101721.22
2022-10-18T04:29:21.557Z,101718.00
2022-10-18T04:31:48.332Z,101721.63
2022-10-18T04:34:15.160Z,101723.50
2022-10-18T04:36:41.824Z,101720.28
2022-10-18T04:39:08.399Z,101718.84
2022-10-18T04:41:35.226Z,101712.22
2022-10-18T04:44:01.792Z,101716.91
2022-10-18T04:46:28.535Z,101710.25
2022-10-18T04:48:55.113Z,101714.56
2022-10-18T04:51:21.971Z,101729.16
2022-10-18T04:53:48.632Z,101724.63
2022-10-18T04:56:16.570Z,101723.16
2022-10-18T04:58:43.387Z,101726.16
2022-10-18T05:01:10.064Z,101718.00
2022-10-18T05:03:36.981Z,101723.13
2022-10-18T05:06:03.820Z,101725.69
2022-10-18T05:08:31.584Z,101737.03
2022-10-18T05:10:59.023Z,101717.09
2022-10-18T05:13:25.940Z,101717.75
2022-10-18T05:15:52.950Z,101722.03
2022-10-18T05:18:20.041Z,101723.97
2022-10-18T05:20:47.328Z,101714.09
2022-10-18T05:23:14.041Z,101716.63
2022-10-18T05:25:42.278Z,101715.78
2022-10-18T05:28:15.781Z,101707.66
2022-10-18T05:30:54.020Z,101705.28
2022-10-18T05:33:20.699Z,101705.28
2022-10-18T05:35:47.342Z,101709.38
2022-10-18T05:38:13.921Z,101711.31
2022-10-18T05:40:40.690Z,101709.81
2022-10-18T05:43:07.283Z,101713.28
2022-10-18T05:45:34.054Z,101706.66
2022-10-18T05:48:00.662Z,101710.28
2022-10-18T05:50:28.910Z,101722.28
2022-10-18T05:53:02.736Z,101720.78
2022-10-18T05:55:39.241Z,101729.34
2022-10-18T05:58:05.814Z,101729.78
2022-10-18T06:00:32.476Z,101732.13
2022-10-18T06:03:00.405Z,101732.53
2022-10-18T06:05:27.765Z,101735.16
2022-10-18T06:07:55.975Z,101743.28
2022-10-18T06:10:22.669Z,101741.78
2022-10-18T06:12:49.268Z,101743.69
2022-10-18T06:15:15.950Z,101742.66
2022-10-18T06:17:42.615Z,101752.03
2022-10-18T06:20:09.528Z,101752.69
2022-10-18T06:22:36.261Z,101747.97
2022-10-18T06:25:02.900Z,101749.25
2022-10-18T06:27:31.516Z,101748.19
2022-10-18T06:29:58.459Z,101750.13
2022-10-18T06:32:25.037Z,101755.25
2022-10-18T06:34:51.770Z,101755.91
2022-10-18T06:37:18.508Z,101764.47
2022-10-18T06:39:45.517Z,101761.91
2022-10-18T06:42:12.096Z,101770.69
2022-10-18T06:44:38.806Z,101765.97
2022-10-18T06:47:07.703Z,101772.81
2022-10-18T06:49:34.717Z,101772.19
2022-10-18T06:52:01.452Z,101771.13
2022-10-18T06:54:28.235Z,101779.03
2022-10-18T06:56:58.110Z,101781.38
2022-10-18T06:59:27.519Z,101784.38
2022-10-18T07:01:57.344Z,101795.75
2022-10-18T07:04:24.107Z,101802.19
2022-10-18T07:06:53.651Z,101801.28
2022-10-18T07:09:20.186Z,101809.44
2022-10-18T07:11:46.772Z,101798.50
2022-10-18T07:14:16.358Z,101800.03
2022-10-18T07:16:43.246Z,101788.25
2022-10-18T07:19:09.819Z,101799.38
2022-10-18T07:21:36.469Z,101802.81
2022-10-18T07:24:03.316Z,101808.38
2022-10-18T07:26:33.215Z,101819.69
2022-10-18T07:29:08.542Z,101827.44
2022-10-18T07:31:35.661Z,101828.09
2022-10-18T07:34:05.134Z,101844.56
2022-10-18T07:36:32.062Z,101842.84
2022-10-18T07:38:59.544Z,101836.44
2022-10-18T07:41:26.479Z,101833.66
2022-10-18T07:43:53.490Z,101837.53
2022-10-18T07:46:22.070Z,101849.31
2022-10-18T07:48:50.902Z,101843.31
2022-10-18T07:51:18.560Z,101846.28
2022-10-18T07:53:45.364Z,101850.59
2022-10-18T07:56:19.056Z,101858.91
2022-10-18T07:58:47.490Z,101863.63
2022-10-18T08:01:15.291Z,101862.13
2022-10-18T08:03:43.536Z,101862.34
2022-10-18T08:06:12.695Z,101868.75
2022-10-18T08:08:40.806Z,101863.19
2022-10-18T08:11:14.871Z,101880.31
2022-10-18T08:13:42.497Z,101887.59
2022-10-18T08:16:14.343Z,101891.66
2022-10-18T08:18:41.279Z,101899.16
2022-10-18T08:21:09.911Z,101898.78
2022-10-18T08:23:37.466Z,101899.81
2022-10-18T08:26:06.340Z,101902.66
2022-10-18T08:28:36.162Z,101902.00
2022-10-18T08:31:05.041Z,101915.06
2022-10-18T08:33:32.539Z,101900.06
2022-10-18T08:36:00.979Z,101901.34
2022-10-18T08:38:33.412Z,101909.06
2022-10-18T08:41:44.987Z,101919.78
2022-10-18T08:44:28.153Z,101905.19
2022-10-18T08:47:04.283Z,101909.25
2022-10-18T08:49:45.587Z,101907.38
2022-10-18T08:52:25.041Z,101913.94
2022-10-18T08:55:00.499Z,101914.16
2022-10-18T08:57:27.136Z,101919.13
2022-10-18T08:59:53.933Z,101927.28
2022-10-18T09:02:53.646Z,101922.97
2022-10-18T09:05:31.446Z,101921.06
2022-10-18T09:08:24.298Z,101929.66
2022-10-18T09:11:17.110Z,101932.63
2022-10-18T09:14:11.688Z,101932.19
2022-10-18T09:16:59.017Z,101928.56
2022-10-18T09:19:31.698Z,101922.34
2022-10-18T09:22:11.891Z,101924.94
2022-10-18T09:24:53.213Z,101919.34
2022-10-18T09:27:22.433Z,101921.06
2022-10-18T09:30:03.651Z,101912.47
2022-10-18T09:33:07.240Z,101925.34
2022-10-18T09:35:57.929Z,101936.50
2022-10-18T09:38:30.888Z,101935.66
2022-10-18T09:41:07.390Z,101938.44
2022-10-18T09:43:46.363Z,101929.41
2022-10-18T09:46:13.848Z,101933.91
2022-10-18T09:48:50.036Z,101927.50
2022-10-18T09:51:23.528Z,101922.56
2022-10-18T09:53:58.778Z,101933.91
2022-10-18T09:56:30.912Z,101935.19
2022-10-18T09:58:57.576Z,101937.94
2022-10-18T10:01:29.712Z,101936.84
2022-10-18T10:03:56.534Z,101946.06
2022-10-18T10:06:23.817Z,101938.97
2022-10-18T10:09:15.237Z,101932.34
2022-10-18T10:11:48.324Z,101940.72
2022-10-18T10:14:22.994Z,101936.84
2022-10-18T10:16:54.731Z,101940.94
2022-10-18T10:19:28.738Z,101942.03
2022-10-18T10:21:59.905Z,101939.88
2022-10-18T10:24:35.754Z,101946.31
2022-10-18T10:27:06.288Z,101942.44
2022-10-18T10:29:45.320Z,101943.53
2022-10-18T10:32:14.899Z,101938.38
2022-10-18T10:34:44.697Z,101939.44
2022-10-18T10:37:30.981Z,101950.13
2022-10-18T10:40:26.502Z,101939.19
2022-10-18T10:43:32.887Z,101939.00
2022-10-18T10:46:23.076Z,101945.44
2022-10-18T10:49:09.524Z,101952.53
2022-10-18T10:51:41.158Z,101948.66
2022-10-18T10:54:18.570Z,101930.63
2022-10-18T10:56:58.319Z,101933.22
2022-10-18T10:59:27.865Z,101945.44
2022-10-18T11:02:18.588Z,101942.41
2022-10-18T11:04:47.482Z,101929.25
2022-10-18T11:07:16.732Z,101933.28
2022-10-18T11:10:13.884Z,101932.22
2022-10-18T11:13:03.610Z,101939.28
2022-10-18T11:15:38.648Z,101937.19
2022-10-18T11:18:24.132Z,101939.13
2022-10-18T11:21:08.515Z,101935.03
2022-10-18T11:23:40.337Z,101934.16
2022-10-18T11:26:12.990Z,101935.88
2022-10-18T11:28:45.493Z,101932.03
2022-10-18T11:31:35.817Z,101931.94
2022-10-18T11:34:20.790Z,101914.75
2022-10-18T11:37:28.100Z,101930.63
2022-10-18T11:40:26.412Z,101926.31
2022-10-18T11:43:21.866Z,101919.84
2022-10-18T11:45:57.468Z,101906.94
2022-10-18T11:48:51.921Z,101913.41
2022-10-18T11:51:56.375Z,101917.94
2022-10-18T11:54:43.554Z,101910.81
2022-10-18T11:57:37.796Z,101914.94
2022-10-18T12:03:15.181Z,101918.38
2022-10-18T12:05:45.771Z,101916.28
2022-10-18T12:08:16.043Z,101905.63
2022-10-18T12:11:06.706Z,101911.34
2022-10-18T12:13:44.786Z,101921.19
2022-10-18T12:16:12.442Z,101911.91
2022-10-18T12:19:01.048Z,101913.31
2022-10-18T12:21:31.913Z,101908.09
2022-10-18T12:24:02.818Z,101907.75
2022-10-18T12:26:31.002Z,101906.59
2022-10-18T12:29:24.400Z,101908.44
2022-10-18T12:32:05.675Z,101906.91
2022-10-18T12:34:43.463Z,101906.19
2022-10-18T12:37:27.421Z,101909.13
2022-10-18T12:40:21.264Z,101902.97
2022-10-18T12:42:51.659Z,101899.16
2022-10-18T12:45:28.919Z,101899.56
2022-10-18T12:48:00.522Z,101901.28
2022-10-18T12:50:30.062Z,101897.34
2022-10-18T12:53:02.566Z,101903.75
2022-10-18T12:55:32.402Z,101904.25
2022-10-18T12:57:58.950Z,101897.66
2022-10-18T13:00:31.616Z,101903.44
2022-10-18T13:03:13.356Z,101904.03
2022-10-18T13:05:54.446Z,101911.53
2022-10-18T13:08:27.877Z,101895.63
2022-10-18T13:11:09.972Z,101904.34
2022-10-18T13:14:24.945Z,101910.72
2022-10-18T13:17:01.466Z,101904.50
2022-10-18T13:20:20.555Z,101899.72
2022-10-18T13:22:45.762Z,101910.28
2022-10-18T13:25:31.150Z,101905.09
2022-10-18T13:28:05.514Z,101904.47
2022-10-18T13:30:32.500Z,101903.84
2022-10-18T13:33:19.604Z,101900.09
2022-10-18T13:35:57.078Z,101903.91
2022-10-18T13:38:32.811Z,101902.59
2022-10-18T13:41:28.305Z,101907.06
2022-10-18T13:44:43.510Z,101893.06
2022-10-18T13:47:11.615Z,101899.09
2022-10-18T13:49:47.349Z,101896.09
2022-10-18T13:52:26.004Z,101894.50
2022-10-18T13:55:43.796Z,101889.94
2022-10-18T13:58:53.775Z,101889.09
2022-10-18T14:01:50.691Z,101888.56
2022-10-18T14:04:31.731Z,101891.75
2022-10-18T14:07:02.322Z,101887.09
2022-10-18T14:09:54.881Z,101893.44
2022-10-18T14:12:44.128Z,101897.22
2022-10-18T14:15:31.208Z,101893.81
2022-10-18T14:18:05.054Z,101887.03
2022-10-18T14:20:49.365Z,101898.38
2022-10-18T14:23:23.882Z,101899.69
2022-10-18T14:25:50.632Z,101906.16
2022-10-18T14:28:31.406Z,101899.53
2022-10-18T14:31:15.340Z,101896.03
2022-10-18T14:33:45.322Z,101899.22
2022-10-18T14:36:17.519Z,101900.69
2022-10-18T14:38:56.922Z,101906.75
2022-10-18T14:41:29.376Z,101899.31
2022-10-18T14:44:14.286Z,101915.25
2022-10-18T14:47:00.468Z,101911.50
2022-10-18T14:49:27.399Z,101908.53
2022-10-18T14:51:57.601Z,101913.72
2022-10-18T14:54:33.714Z,101905.50
2022-10-18T14:57:02.119Z,101909.06
2022-10-18T14:59:57.971Z,101910.69
2022-10-18T15:02:27.069Z,101905.31
2022-10-18T15:05:19.422Z,101915.16
2022-10-18T15:07:47.251Z,101908.47
2022-10-18T15:10:20.584Z,101907.88
2022-10-18T15:13:08.790Z,101906.31
2022-10-18T15:15:35.542Z,101915.38
2022-10-18T15:18:02.463Z,101900.34
2022-10-18T15:20:34.639Z,101898.81
2022-10-18T15:23:24.904Z,101905.94
2022-10-18T15:25:59.504Z,101908.09
2022-10-18T15:28:37.722Z,101904.97
2022-10-18T15:31:05.140Z,101913.94
2022-10-18T15:33:34.649Z,101915.47
2022-10-18T15:36:10.512Z,101918.72
2022-10-18T15:38:37.761Z,101913.28
2022-10-18T15:41:41.405Z,101904.69
2022-10-18T15:44:29.707Z,101908.22
2022-10-18T15:47:11.951Z,101918.66
2022-10-18T15:49:44.614Z,101914.00
2022-10-18T15:52:38.623Z,101911.06
2022-10-18T15:55:41.877Z,101924.38
2022-10-18T15:58:17.436Z,101924.22
2022-10-18T16:00:45.491Z,101915.25
2022-10-18T16:03:12.742Z,101916.38
2022-10-18T16:05:40.487Z,101925.00
2022-10-18T16:08:24.580Z,101924.19
2022-10-18T16:10:51.991Z,101922.72
2022-10-18T16:13:18.784Z,101922.63
2022-10-18T16:15:45.581Z,101919.06
2022-10-18T16:18:16.118Z,101912.88
2022-10-18T16:20:43.040Z,101919.00
2022-10-18T16:23:19.052Z,101919.25
2022-10-18T16:25:45.851Z,101910.66
2022-10-18T16:28:24.565Z,101915.38
2022-10-18T16:30:57.332Z,101919.69
2022-10-18T16:33:25.023Z,101916.28
2022-10-18T16:35:52.719Z,101917.34
2022-10-18T16:38:24.749Z,101929.59
2022-10-18T16:40:51.903Z,101926.38
2022-10-18T16:43:18.529Z,101929.41
2022-10-18T16:45:45.748Z,101931.13
2022-10-18T16:48:21.351Z,101934.34
2022-10-18T16:50:48.927Z,101936.06
2022-10-18T16:53:16.206Z,101949.13
2022-10-18T16:55:43.319Z,101955.59
2022-10-18T16:58:17.804Z,101951.63
2022-10-18T17:00:46.828Z,101953.91
2022-10-18T17:03:14.239Z,101955.69
2022-10-18T17:05:42.017Z,101950.53
2022-10-18T17:08:18.853Z,101953.09
2022-10-18T17:10:47.036Z,101947.72
2022-10-18T17:13:14.226Z,101946.22
2022-10-18T17:15:42.392Z,101944.53
2022-10-18T17:18:15.655Z,101962.03
2022-10-18T17:20:43.680Z,101959.88
2022-10-18T17:23:10.789Z,101965.88
2022-10-18T17:25:46.360Z,101970.13
2022-10-18T17:28:24.807Z,101966.72
2022-10-18T17:30:52.001Z,101969.25
2022-10-18T17:33:18.670Z,101978.81
2022-10-18T17:35:45.283Z,101987.97
2022-10-18T17:38:12.037Z,101986.50
2022-10-18T17:40:42.900Z,101988.66
2022-10-18T17:43:10.245Z,101990.09
2022-10-18T17:45:36.857Z,102003.22
2022-10-18T17:48:03.614Z,102001.91
2022-10-18T17:50:30.159Z,101991.72
2022-10-18T17:52:57.299Z,102003.41
2022-10-18T17:55:23.878Z,101999.19
2022-10-18T17:57:51.418Z,102005.31
2022-10-18T18:00:18.065Z,102001.91
2022-10-18T18:02:44.991Z,101989.69
2022-10-18T18:05:12.555Z,101985.28
2022-10-18T18:07:39.252Z,101984.53
2022-10-18T18:10:06.974Z,101988.50
2022-10-18T18:12:34.096Z,102006.09
2022-10-18T18:15:00.906Z,102002.00
2022-10-18T18:17:33.945Z,101995.53
2022-10-18T18:20:01.978Z,102001.59
2022-10-18T18:22:28.561Z,102008.34
2022-10-18T18:24:55.224Z,102002.28
2022-10-18T18:27:21.901Z,102015.84
2022-10-18T18:29:48.485Z,102020.09
2022-10-18T18:32:15.107Z,102016.25
2022-10-18T18:34:42.494Z,102013.25
2022-10-18T18:37:09.575Z,102021.00
2022-10-18T18:39:38.714Z,102021.19
2022-10-18T18:42:06.544Z,102023.13
2022-10-18T18:44:33.981Z,102016.69
2022-10-18T18:47:01.676Z,102020.78
2022-10-18T18:49:28.410Z,102023.69
2022-10-18T18:51:55.008Z,102026.59
2022-10-18T18:54:22.014Z,102026.72
2022-10-18T18:56:48.561Z,102019.75
2022-10-18T18:59:15.552Z,102012.16
2022-10-18T19:01:42.667Z,102015.47
2022-10-18T19:04:10.276Z,102020.97
2022-10-18T19:06:40.132Z,102022.31
2022-10-18T19:09:13.037Z,102020.16
2022-10-18T19:11:40.067Z,102031.53
2022-10-18T19:14:07.978Z,102015.59
2022-10-18T19:16:39.844Z,102030.63
2022-10-18T19:19:16.735Z,102026.34
2022-10-18T19:21:46.070Z,102020.84
2022-10-18T19:24:13.712Z,102025.81
2022-10-18T19:26:55.079Z,102023.88
2022-10-18T19:29:33.470Z,102019.44
2022-10-18T19:32:02.720Z,102014.66
2022-10-18T19:34:30.644Z,102017.88
2022-10-18T19:36:57.557Z,102023.41
2022-10-18T19:39:31.135Z,102016.75
2022-10-18T19:42:00.282Z,102025.72
2022-10-18T19:44:30.044Z,102023.31
2022-10-18T19:46:57.635Z,102036.06
2022-10-18T19:49:24.515Z,102030.09
2022-10-18T19:51:51.263Z,102024.16
2022-10-18T19:54:18.126Z,102026.09
2022-10-18T19:56:44.962Z,102034.41
2022-10-18T19:59:13.272Z,102035.00
2022-10-18T20:01:39.990Z,102035.88
2022-10-18T20:04:08.366Z,102030.41
2022-10-18T20:06:36.364Z,102028.31
2022-10-18T20:09:04.957Z,102029.38
2022-10-18T20:11:33.848Z,102025.53
2022-10-18T20:14:00.550Z,102024.25
2022-10-18T20:16:29.456Z,102035.03
2022-10-18T20:19:01.485Z,102034.34
2022-10-18T20:21:31.639Z,102041.69
2022-10-18T20:23:58.323Z,102040.34
2022-10-18T20:26:25.619Z,102031.19
2022-10-18T20:28:57.496Z,102028.66
2022-10-18T20:31:26.453Z,102027.47
2022-10-18T20:33:55.499Z,102031.34
2022-10-18T20:36:22.492Z,102030.34
2022-10-18T20:38:49.804Z,102029.56
2022-10-18T20:41:22.717Z,102028.81
2022-10-18T20:43:57.008Z,102031.09
2022-10-18T20:46:27.169Z,102036.22
2022-10-18T20:48:54.970Z,102039.19
2022-10-18T20:51:22.608Z,102037.88
2022-10-18T20:53:49.910Z,102039.03
2022-10-18T20:56:20.289Z,102039.56
2022-10-18T20:58:49.444Z,102044.84
2022-10-18T21:01:18.924Z,102045.00
2022-10-18T21:03:46.963Z,102047.78
2022-10-18T21:06:25.102Z,102040.28
2022-10-18T21:08:57.966Z,102052.72
2022-10-18T21:11:25.853Z,102046.19
2022-10-18T21:13:58.806Z,102047.22
2022-10-18T21:16:26.147Z,102047.50
2022-10-18T21:18:53.552Z,102033.41
2022-10-18T21:21:25.336Z,102037.91
2022-10-18T21:23:52.576Z,102043.97
2022-10-18T21:26:21.922Z,102039.06
2022-10-18T21:28:53.060Z,102040.50
2022-10-18T21:31:22.368Z,102038.59
2022-10-18T21:33:53.991Z,102027.28
2022-10-18T21:36:21.140Z,102031.94
2022-10-18T21:38:48.417Z,102033.75
2022-10-18T21:41:17.440Z,102020.38
2022-10-18T21:43:46.622Z,102022.22
2022-10-18T21:46:15.024Z,102011.91
2022-10-18T21:48:47.229Z,102018.44
2022-10-18T21:51:17.578Z,102008.69
2022-10-18T21:53:46.067Z,102006.19
2022-10-18T21:56:15.163Z,102004.25
2022-10-18T21:58:42.337Z,102005.44
2022-10-18T22:01:14.254Z,102001.44
2022-10-18T22:03:41.624Z,102002.31
2022-10-18T22:06:14.093Z,102001.63
2022-10-18T22:08:50.869Z,101991.94
2022-10-18T22:11:19.848Z,101988.97
2022-10-18T22:13:46.980Z,101985.22
2022-10-18T22:16:15.328Z,101997.22
2022-10-18T22:18:43.817Z,101993.78
2022-10-18T22:21:12.450Z,101994.50
2022-10-18T22:23:42.687Z,101996.28
2022-10-18T22:26:15.632Z,102000.75
2022-10-18T22:28:44.121Z,102003.72
2022-10-18T22:31:16.328Z,101996.09
2022-10-18T22:33:43.522Z,101998.63
2022-10-18T22:36:10.173Z,101990.91
2022-10-18T22:38:37.677Z,101998.41
2022-10-18T22:41:05.917Z,101993.25
2022-10-18T22:43:32.866Z,101992.88
2022-10-18T22:46:08.436Z,101988.41
2022-10-18T22:48:35.380Z,101995.91
2022-10-18T22:51:02.576Z,101998.53
2022-10-18T22:53:29.985Z,102011.34
2022-10-18T22:55:56.690Z,102005.53
2022-10-18T22:58:23.467Z,102015.56
2022-10-18T23:00:50.599Z,102013.47
2022-10-18T23:03:18.709Z,102006.69
2022-10-18T23:05:46.904Z,102009.25
2022-10-18T23:08:14.317Z,102010.59
2022-10-18T23:10:42.470Z,102010.84
2022-10-18T23:13:10.733Z,102018.28
2022-10-18T23:15:39.015Z,102021.03
2022-10-18T23:18:06.210Z,102020.16
2022-10-18T23:20:32.952Z,102017.03
2022-10-18T23:22:59.581Z,102020.31
2022-10-18T23:25:27.216Z,102012.59
2022-10-18T23:27:54.408Z,102025.88
2022-10-18T23:30:20.984Z,102021.75
2022-10-18T23:32:47.743Z,102018.28
2022-10-18T23:35:14.349Z,102018.13
2022-10-18T23:37:40.971Z,102021.25
2022-10-18T23:40:08.350Z,102020.56
2022-10-18T23:42:34.993Z,102019.00
2022-10-18T23:45:01.727Z,102020.56
2022-10-18T23:47:28.728Z,102019.91
2022-10-18T23:49:57.162Z,102026.31
2022-10-18T23:52:24.714Z,102021.31
2022-10-18T23:54:51.270Z,102021.13
2022-10-18T23:57:17.868Z,102014.06
2022-10-18T23:59:44.514Z,102016.66
